Secane, Pennsylvania
Current Conditions -  °F | °C
As of 12:54 PM on Friday 28 Nov 2014 (Local Time) from KPHL Reporting Station
Scattered Clouds Scattered Clouds  
Wind Chill: 28°   Ceiling: Unl
Heat Index: 37°   Visibility: 10mi
Dew Point: 17°   Wind: 15mph
Humidity: 44%   Direction: 310°NW
Pressure: 30.22"   Gusts: NA
Location:  39.9228°N, 75.2984°W
Report Text: KPHL 281754Z 31013KT 10SM SCT047 03/M08 A3022 RMK AO2 SLP234 T00281083 10039 21006 56011 $
Loading
Personal Weather Stations






























Interactive Weather Map New forecast layout! Learn more

10-Day Weather Forecast

Advertisements
Track Severe Weather on mobile